createdAt,value
2023-01-05T00:00:48.437Z,9.70
2023-01-05T00:01:51.015Z,9.60
2023-01-05T00:02:54.060Z,9.10
2023-01-05T00:03:56.218Z,9.60
2023-01-05T00:04:58.680Z,9.40
2023-01-05T00:06:07.088Z,9.60
2023-01-05T00:07:09.400Z,9.10
2023-01-05T00:08:13.801Z,9.20
2023-01-05T00:09:18.781Z,8.80
2023-01-05T00:10:39.607Z,10.10
2023-01-05T00:12:00.945Z,8.70
2023-01-05T00:13:21.716Z,9.70
2023-01-05T00:14:45.976Z,8.90
2023-01-05T00:16:07.479Z,9.50
2023-01-05T00:17:31.508Z,9.70
2023-01-05T00:18:52.394Z,9.90
2023-01-05T00:20:13.043Z,8.60
2023-01-05T00:21:34.140Z,8.60
2023-01-05T00:22:40.010Z,8.80
2023-01-05T00:23:42.042Z,10.40
2023-01-05T00:24:45.242Z,7.10
2023-01-05T00:25:47.219Z,4.50
2023-01-05T00:26:49.316Z,8.60
2023-01-05T00:27:53.788Z,8.60
2023-01-05T00:28:55.976Z,8.40
2023-01-05T00:29:58.763Z,8.80
2023-01-05T00:31:01.099Z,7.70
2023-01-05T00:32:03.098Z,8.00
2023-01-05T00:33:07.885Z,7.90
2023-01-05T00:34:09.948Z,9.00
2023-01-05T00:35:14.059Z,8.50
2023-01-05T00:36:16.904Z,10.10
2023-01-05T00:37:19.075Z,4.30
2023-01-05T00:38:21.123Z,6.50
2023-01-05T00:39:23.189Z,7.67
2023-01-05T00:40:25.368Z,8.60
2023-01-05T00:41:28.508Z,7.90
2023-01-05T00:42:30.786Z,8.40
2023-01-05T00:43:32.987Z,8.50
2023-01-05T00:44:35.060Z,9.10
2023-01-05T00:45:37.688Z,8.78
2023-01-05T00:46:40.104Z,7.00
2023-01-05T00:47:42.516Z,10.20
2023-01-05T00:48:44.503Z,8.10
2023-01-05T00:49:46.537Z,9.00
2023-01-05T00:50:51.819Z,8.80
2023-01-05T00:51:58.534Z,8.80
2023-01-05T00:53:00.696Z,8.50
2023-01-05T00:54:06.698Z,8.30
2023-01-05T00:55:09.888Z,9.30
2023-01-05T00:56:14.345Z,8.64
2023-01-05T00:57:16.803Z,8.73
2023-01-05T00:58:18.870Z,7.60
2023-01-05T00:59:20.934Z,8.00
2023-01-05T01:00:24.009Z,10.00
2023-01-05T01:01:26.778Z,7.30
2023-01-05T01:02:30.059Z,10.20
2023-01-05T01:03:32.365Z,9.70
2023-01-05T01:04:35.267Z,9.60
2023-01-05T01:05:38.664Z,8.50
2023-01-05T01:06:41.230Z,9.30
2023-01-05T01:07:43.325Z,10.30
2023-01-05T01:08:45.340Z,11.20
2023-01-05T01:09:47.392Z,8.11
2023-01-05T01:10:49.803Z,12.70
2023-01-05T01:11:51.888Z,10.56
2023-01-05T01:12:54.498Z,12.40
2023-01-05T01:13:57.184Z,11.27
2023-01-05T01:14:59.906Z,12.70
2023-01-05T01:16:10.360Z,10.70
2023-01-05T01:17:12.955Z,14.40
2023-01-05T01:18:15.480Z,12.70
2023-01-05T01:19:20.399Z,13.00
2023-01-05T01:20:23.478Z,13.50
2023-01-05T01:21:26.305Z,10.00
2023-01-05T01:22:28.710Z,11.20
2023-01-05T01:23:33.555Z,12.00
2023-01-05T01:24:35.959Z,10.80
2023-01-05T01:25:39.303Z,10.90
2023-01-05T01:26:41.602Z,11.70
2023-01-05T01:27:43.817Z,10.60
2023-01-05T01:28:49.056Z,10.00
2023-01-05T01:29:51.120Z,11.80
2023-01-05T01:30:53.305Z,9.80
2023-01-05T01:31:55.899Z,10.90
2023-01-05T01:32:58.429Z,10.80
2023-01-05T01:34:01.612Z,4.80
2023-01-05T01:35:04.791Z,10.40
2023-01-05T01:36:09.181Z,8.00
2023-01-05T01:37:12.499Z,3.30
2023-01-05T01:38:16.945Z,10.00
2023-01-05T01:39:19.574Z,11.10
2023-01-05T01:40:24.019Z,9.40
2023-01-05T01:41:26.648Z,9.10
2023-01-05T01:42:29.059Z,11.60
2023-01-05T01:43:46.904Z,9.70
2023-01-05T01:44:59.615Z,7.20
2023-01-05T01:46:03.963Z,9.50
2023-01-05T01:47:06.192Z,12.00
2023-01-05T01:48:12.182Z,12.30
2023-01-05T01:49:15.255Z,9.90
2023-01-05T01:50:23.019Z,9.50
2023-01-05T01:51:31.602Z,11.30
2023-01-05T01:52:35.187Z,9.80
2023-01-05T01:53:44.008Z,8.90
2023-01-05T01:54:47.944Z,9.00
2023-01-05T01:55:53.138Z,11.70
2023-01-05T01:56:56.020Z,9.70
2023-01-05T01:58:01.086Z,10.20
2023-01-05T01:59:03.656Z,11.40
2023-01-05T02:00:09.184Z,9.55
2023-01-05T02:01:20.462Z,10.70
2023-01-05T02:02:23.234Z,10.27
2023-01-05T02:03:28.718Z,9.50
2023-01-05T02:04:33.367Z,9.60
2023-01-05T02:05:37.528Z,9.10
2023-01-05T02:06:39.860Z,4.40
2023-01-05T02:07:47.130Z,9.80
2023-01-05T02:08:49.811Z,8.60
2023-01-05T02:09:52.166Z,6.82
2023-01-05T02:11:01.202Z,10.20
2023-01-05T02:12:22.387Z,9.10
2023-01-05T02:14:01.739Z,8.20
2023-01-05T02:15:07.807Z,10.80
2023-01-05T02:16:23.753Z,9.30
2023-01-05T02:17:33.745Z,10.80
2023-01-05T02:19:09.119Z,9.50
2023-01-05T02:20:38.019Z,9.40
2023-01-05T02:21:59.053Z,9.30
2023-01-05T02:23:17.030Z,10.20
2023-01-05T02:26:13.147Z,6.80
2023-01-05T02:27:22.103Z,9.50
2023-01-05T02:28:44.741Z,8.00
2023-01-05T02:30:06.026Z,8.40
2023-01-05T02:31:14.784Z,10.40
2023-01-05T02:32:31.490Z,9.20
2023-01-05T02:33:57.432Z,9.40
2023-01-05T02:35:26.972Z,9.20
2023-01-05T02:36:41.954Z,6.50
2023-01-05T02:37:50.532Z,8.00
2023-01-05T02:39:02.496Z,9.50
2023-01-05T02:40:19.505Z,8.20
2023-01-05T02:41:34.472Z,8.40
2023-01-05T02:42:41.515Z,8.10
2023-01-05T02:43:45.583Z,6.80
2023-01-05T02:44:48.249Z,8.30
2023-01-05T02:45:50.414Z,7.40
2023-01-05T02:47:04.251Z,7.10
2023-01-05T02:48:06.563Z,8.50
2023-01-05T02:49:09.001Z,8.56
2023-01-05T02:50:25.187Z,9.36
2023-01-05T02:51:31.075Z,8.20
2023-01-05T02:52:36.763Z,9.70
2023-01-05T02:53:42.598Z,8.60
2023-01-05T02:54:48.684Z,9.10
2023-01-05T02:56:13.449Z,8.90
2023-01-05T02:57:27.439Z,6.70
2023-01-05T02:58:36.272Z,8.00
2023-01-05T02:59:42.844Z,3.20
2023-01-05T03:00:52.062Z,8.50
2023-01-05T03:02:04.620Z,8.20
2023-01-05T03:03:13.404Z,9.40
2023-01-05T03:05:37.539Z,9.00
2023-01-05T03:06:52.081Z,9.40
2023-01-05T03:07:58.491Z,9.20
2023-01-05T03:09:04.720Z,10.00
2023-01-05T03:10:28.195Z,8.30
2023-01-05T03:11:53.248Z,9.40
2023-01-05T03:13:19.689Z,7.70
2023-01-05T03:14:25.791Z,11.20
2023-01-05T03:15:31.672Z,8.90
2023-01-05T03:16:37.319Z,8.90
2023-01-05T03:17:44.120Z,8.90
2023-01-05T03:19:07.961Z,9.30
2023-01-05T03:20:13.698Z,5.50
2023-01-05T03:21:15.934Z,9.30
2023-01-05T03:22:40.539Z,9.10
2023-01-05T03:24:02.288Z,9.40
2023-01-05T03:25:26.333Z,9.20
2023-01-05T03:26:48.770Z,8.00
2023-01-05T03:28:13.235Z,8.90
2023-01-05T03:29:34.652Z,9.70
2023-01-05T03:31:03.127Z,9.90
2023-01-05T03:32:33.098Z,7.00
2023-01-05T03:33:56.699Z,9.40
2023-01-05T03:35:29.799Z,9.70
2023-01-05T03:36:38.912Z,8.90
2023-01-05T03:38:05.964Z,9.80
2023-01-05T03:39:10.901Z,9.70
2023-01-05T03:40:26.915Z,10.40
2023-01-05T03:41:31.500Z,10.30
2023-01-05T03:42:34.025Z,11.10
2023-01-05T03:43:39.098Z,9.18
2023-01-05T03:44:46.636Z,9.90
2023-01-05T03:45:54.016Z,10.80
2023-01-05T03:46:58.147Z,9.60
2023-01-05T03:48:00.654Z,10.50
2023-01-05T03:49:03.768Z,10.70
2023-01-05T03:50:07.791Z,10.20
2023-01-05T03:51:10.264Z,11.00
2023-01-05T03:52:13.899Z,12.20
2023-01-05T03:53:17.818Z,10.36
2023-01-05T03:54:20.651Z,11.30
2023-01-05T03:55:22.896Z,9.10
2023-01-05T03:56:27.241Z,9.80
2023-01-05T03:57:31.323Z,13.00
2023-01-05T03:58:34.993Z,10.30
2023-01-05T03:59:37.242Z,12.80
2023-01-05T04:00:39.954Z,11.40
2023-01-05T04:01:42.476Z,12.00
2023-01-05T04:02:46.696Z,9.60
2023-01-05T04:03:51.524Z,12.00
2023-01-05T04:04:53.954Z,8.64
2023-01-05T04:05:57.686Z,11.20
2023-01-05T04:07:01.849Z,9.60
2023-01-05T04:08:06.851Z,11.30
2023-01-05T04:09:10.248Z,11.70
2023-01-05T04:10:15.449Z,10.90
2023-01-05T04:11:20.899Z,11.00
2023-01-05T04:12:24.989Z,11.70
2023-01-05T04:13:27.320Z,12.70
2023-01-05T04:14:30.056Z,13.00
2023-01-05T04:15:33.753Z,11.50
2023-01-05T04:16:38.141Z,12.20
2023-01-05T04:17:54.432Z,11.10
2023-01-05T04:18:56.594Z,13.80
2023-01-05T04:19:59.086Z,12.50
2023-01-05T04:21:02.267Z,11.80
2023-01-05T04:22:05.239Z,13.00
2023-01-05T04:23:07.452Z,13.80
2023-01-05T04:24:11.347Z,6.36
2023-01-05T04:25:14.748Z,13.70
2023-01-05T04:26:18.815Z,12.70
2023-01-05T04:27:22.684Z,9.30
2023-01-05T04:28:26.460Z,15.60
2023-01-05T04:29:29.628Z,12.30
2023-01-05T04:30:33.240Z,13.30
2023-01-05T04:31:36.773Z,7.30
2023-01-05T04:32:39.337Z,14.00
2023-01-05T04:33:45.985Z,13.20
2023-01-05T04:34:50.142Z,12.80
2023-01-05T04:35:54.749Z,13.90
2023-01-05T04:36:59.221Z,13.50
2023-01-05T04:38:01.486Z,15.20
2023-01-05T04:39:03.704Z,13.30
2023-01-05T04:40:07.680Z,13.45
2023-01-05T04:41:11.939Z,14.40
2023-01-05T04:42:15.708Z,15.10
2023-01-05T04:43:19.884Z,12.30
2023-01-05T04:44:23.826Z,15.10
2023-01-05T04:45:26.417Z,6.80
2023-01-05T04:46:29.036Z,12.18
2023-01-05T04:47:31.590Z,12.90
2023-01-05T04:48:34.174Z,13.20
2023-01-05T04:49:36.792Z,16.20
2023-01-05T04:50:40.532Z,14.10
2023-01-05T04:51:42.947Z,9.80
2023-01-05T04:52:45.232Z,15.50
2023-01-05T04:53:47.830Z,14.40
2023-01-05T04:54:52.201Z,12.60
2023-01-05T04:55:54.507Z,11.80
2023-01-05T04:56:57.139Z,13.00
2023-01-05T04:57:59.151Z,12.90
2023-01-05T04:59:01.320Z,13.60
2023-01-05T05:00:05.084Z,14.80
2023-01-05T05:01:08.671Z,13.20
2023-01-05T05:02:12.166Z,12.80
2023-01-05T05:03:16.624Z,14.40
2023-01-05T05:04:19.158Z,14.20
2023-01-05T05:05:23.187Z,14.00
2023-01-05T05:06:27.176Z,16.10
2023-01-05T05:07:30.261Z,14.00
2023-01-05T05:08:34.170Z,15.36
2023-01-05T05:09:37.134Z,12.00
2023-01-05T05:10:40.066Z,15.64
2023-01-05T05:11:43.321Z,14.40
2023-01-05T05:12:45.437Z,12.80
2023-01-05T05:13:48.383Z,13.80
2023-01-05T05:14:50.584Z,12.10
2023-01-05T05:15:52.830Z,14.00
2023-01-05T05:16:55.193Z,14.20
2023-01-05T05:17:57.185Z,9.00
2023-01-05T05:18:59.697Z,9.40
2023-01-05T05:20:03.349Z,11.10
2023-01-05T05:21:06.512Z,16.20
2023-01-05T05:22:10.660Z,13.60
2023-01-05T05:23:12.745Z,9.80
2023-01-05T05:24:15.598Z,11.80
2023-01-05T05:25:19.928Z,11.10
2023-01-05T05:26:23.199Z,15.10
2023-01-05T05:27:25.754Z,14.00
2023-01-05T05:28:28.697Z,14.30
2023-01-05T05:29:30.835Z,14.10
2023-01-05T05:30:33.248Z,12.10
2023-01-05T05:31:36.228Z,14.70
2023-01-05T05:32:43.980Z,7.80
2023-01-05T05:33:43.408Z,16.70
2023-01-05T05:34:45.478Z,13.18
2023-01-05T05:35:47.557Z,12.22
2023-01-05T05:36:50.361Z,12.30
2023-01-05T05:37:56.352Z,13.90
2023-01-05T05:38:57.723Z,10.90
2023-01-05T05:39:59.896Z,10.90
2023-01-05T05:41:01.926Z,13.30
2023-01-05T05:42:04.155Z,12.22
2023-01-05T05:43:07.030Z,15.50
2023-01-05T05:44:09.199Z,10.91
2023-01-05T05:45:11.951Z,14.44
2023-01-05T05:46:14.503Z,14.90
2023-01-05T05:47:16.675Z,11.20
2023-01-05T05:48:19.187Z,13.90
2023-01-05T05:49:21.418Z,15.80
2023-01-05T05:50:24.471Z,11.10
2023-01-05T05:51:27.822Z,14.90
2023-01-05T05:52:30.059Z,11.18
2023-01-05T05:53:32.177Z,12.70
2023-01-05T05:54:34.322Z,20.00
2023-01-05T05:55:36.387Z,13.30
2023-01-05T05:56:38.996Z,13.70
2023-01-05T05:57:41.632Z,13.90
2023-01-05T05:58:44.674Z,14.90
2023-01-05T05:59:46.927Z,12.64
2023-01-05T06:00:49.583Z,14.30
2023-01-05T06:01:52.002Z,14.40
2023-01-05T06:02:54.587Z,11.90
2023-01-05T06:03:57.530Z,11.60
2023-01-05T06:04:59.613Z,15.30
2023-01-05T06:06:02.603Z,14.70
2023-01-05T06:07:05.855Z,7.45
2023-01-05T06:08:08.166Z,13.70
2023-01-05T06:09:10.492Z,12.40
2023-01-05T06:10:13.390Z,11.45
2023-01-05T06:11:15.679Z,9.40
2023-01-05T06:12:18.166Z,13.20
2023-01-05T06:13:20.763Z,13.80
2023-01-05T06:14:22.958Z,13.80
2023-01-05T06:15:25.184Z,12.50
2023-01-05T06:16:28.702Z,14.91
2023-01-05T06:17:30.927Z,12.09
2023-01-05T06:18:34.938Z,7.70
2023-01-05T06:19:38.894Z,14.40
2023-01-05T06:20:41.721Z,11.80
2023-01-05T06:21:44.423Z,12.80
2023-01-05T06:22:46.731Z,16.40
2023-01-05T06:23:48.972Z,14.10
2023-01-05T06:24:50.955Z,10.80
2023-01-05T06:25:53.146Z,15.20
2023-01-05T06:26:56.044Z,10.40
2023-01-05T06:27:58.569Z,15.40
2023-01-05T06:29:00.776Z,13.30
2023-01-05T06:30:03.860Z,10.30
2023-01-05T06:31:06.287Z,16.27
2023-01-05T06:32:08.328Z,11.60
2023-01-05T06:33:10.422Z,13.70
2023-01-05T06:34:12.667Z,14.10
2023-01-05T06:35:14.983Z,9.90
2023-01-05T06:36:17.439Z,11.60
2023-01-05T06:37:21.178Z,9.30
2023-01-05T06:38:24.993Z,12.00
2023-01-05T06:39:27.219Z,12.60
2023-01-05T06:40:29.455Z,12.00
2023-01-05T06:41:31.698Z,13.80
2023-01-05T06:42:33.994Z,14.10
2023-01-05T06:43:35.983Z,13.00
2023-01-05T06:44:37.954Z,11.78
2023-01-05T06:45:40.314Z,8.80
2023-01-05T06:46:42.590Z,15.00
2023-01-05T06:47:44.760Z,11.67
2023-01-05T06:48:46.730Z,15.40
2023-01-05T06:49:48.683Z,11.78
2023-01-05T06:50:50.823Z,14.80
2023-01-05T06:51:53.086Z,13.00
2023-01-05T06:52:55.407Z,19.80
2023-01-05T06:53:57.647Z,16.20
2023-01-05T06:55:00.142Z,16.60
2023-01-05T06:56:03.420Z,18.80
2023-01-05T06:57:06.431Z,17.10
2023-01-05T06:58:09.686Z,16.82
2023-01-05T06:59:12.511Z,9.70
2023-01-05T07:00:16.168Z,14.30
2023-01-05T07:01:19.410Z,18.50
2023-01-05T07:02:22.309Z,13.70
2023-01-05T07:03:25.689Z,21.10
2023-01-05T07:04:28.273Z,20.90
2023-01-05T07:05:31.067Z,15.60
2023-01-05T07:06:35.391Z,20.64
2023-01-05T07:07:38.332Z,19.10
2023-01-05T07:08:40.517Z,14.50
2023-01-05T07:09:44.461Z,19.00
2023-01-05T07:10:47.197Z,18.30
2023-01-05T07:11:50.044Z,17.60
2023-01-05T07:12:52.348Z,20.73
2023-01-05T07:13:54.589Z,17.40
2023-01-05T07:14:58.087Z,14.20
2023-01-05T07:16:00.444Z,19.40
2023-01-05T07:17:02.883Z,10.70
2023-01-05T07:18:05.288Z,17.90
2023-01-05T07:19:07.511Z,17.80
2023-01-05T07:20:11.480Z,18.00
2023-01-05T07:21:13.874Z,18.00
2023-01-05T07:22:16.122Z,17.20
2023-01-05T07:23:19.599Z,16.30
2023-01-05T07:24:21.749Z,17.60
2023-01-05T07:25:23.824Z,16.11
2023-01-05T07:26:26.767Z,14.90
2023-01-05T07:27:28.994Z,13.00
2023-01-05T07:28:32.369Z,17.70
2023-01-05T07:29:35.704Z,20.30
2023-01-05T07:30:38.083Z,21.50
2023-01-05T07:31:40.345Z,18.10
2023-01-05T07:32:42.944Z,20.00
2023-01-05T07:33:45.222Z,17.90
2023-01-05T07:34:55.314Z,19.10
2023-01-05T07:35:52.422Z,17.90
2023-01-05T07:36:55.468Z,14.40
2023-01-05T07:37:57.736Z,18.70
2023-01-05T07:38:59.801Z,18.50
2023-01-05T07:40:02.063Z,21.50
2023-01-05T07:41:04.633Z,21.40
2023-01-05T07:42:07.290Z,8.90
2023-01-05T07:43:11.345Z,22.30
2023-01-05T07:44:13.197Z,19.00
2023-01-05T07:45:15.175Z,20.89
2023-01-05T07:46:17.649Z,16.90
2023-01-05T07:47:19.867Z,18.00
2023-01-05T07:48:23.986Z,18.78
2023-01-05T07:49:26.783Z,7.20
2023-01-05T07:50:29.515Z,14.55
2023-01-05T07:51:32.711Z,18.00
2023-01-05T07:52:34.893Z,18.18
2023-01-05T07:53:43.879Z,13.10
2023-01-05T07:54:41.954Z,14.50
2023-01-05T07:55:43.973Z,13.70
2023-01-05T07:56:46.692Z,16.60
2023-01-05T07:57:48.610Z,16.70
2023-01-05T07:58:50.610Z,14.00
2023-01-05T07:59:52.675Z,16.67
2023-01-05T08:00:55.892Z,12.70
2023-01-05T08:01:58.232Z,14.50
2023-01-05T08:03:00.341Z,18.60
2023-01-05T08:04:03.501Z,16.33
2023-01-05T08:05:06.563Z,9.50
2023-01-05T08:06:12.837Z,15.30
2023-01-05T08:07:15.211Z,13.70
2023-01-05T08:08:24.028Z,11.90
2023-01-05T08:09:39.733Z,16.80
2023-01-05T08:10:43.283Z,10.30
2023-01-05T08:11:45.244Z,17.90
2023-01-05T08:13:05.795Z,16.00
2023-01-05T08:14:07.924Z,20.30
2023-01-05T08:15:10.247Z,13.90
2023-01-05T08:16:13.448Z,18.30
2023-01-05T08:17:15.646Z,15.90
2023-01-05T08:18:18.049Z,18.40
2023-01-05T08:19:20.136Z,13.20
2023-01-05T08:20:22.224Z,17.60
2023-01-05T08:21:24.467Z,11.78
2023-01-05T08:22:26.882Z,11.50
2023-01-05T08:23:28.776Z,16.00
2023-01-05T08:24:30.939Z,16.00
2023-01-05T08:25:33.482Z,16.00
2023-01-05T08:26:37.011Z,11.60
2023-01-05T08:27:39.228Z,14.80
2023-01-05T08:28:42.443Z,17.60
2023-01-05T08:29:44.713Z,15.10
2023-01-05T08:30:47.128Z,14.70
2023-01-05T08:31:49.420Z,8.10
2023-01-05T08:32:51.517Z,15.30
2023-01-05T08:33:59.360Z,13.70
2023-01-05T08:35:01.337Z,12.00
2023-01-05T08:36:13.212Z,17.00
2023-01-05T08:37:16.528Z,10.10
2023-01-05T08:38:24.151Z,16.40
2023-01-05T08:39:27.080Z,9.20
2023-01-05T08:40:29.622Z,14.20
2023-01-05T08:41:35.647Z,17.80
2023-01-05T08:42:37.828Z,14.10
2023-01-05T08:43:39.851Z,8.40
2023-01-05T08:44:42.897Z,11.80
2023-01-05T08:45:52.014Z,14.60
2023-01-05T08:46:54.367Z,11.20
2023-01-05T08:47:56.530Z,14.50
2023-01-05T08:49:01.299Z,14.70
2023-01-05T08:50:06.190Z,13.80
2023-01-05T08:51:08.458Z,14.30
2023-01-05T08:52:10.617Z,15.20
2023-01-05T08:53:12.655Z,13.70
2023-01-05T08:54:14.520Z,12.56
2023-01-05T08:55:16.735Z,16.00
2023-01-05T08:56:20.258Z,15.10
2023-01-05T08:57:22.434Z,10.70
2023-01-05T08:58:24.458Z,16.30
2023-01-05T08:59:27.201Z,13.10
2023-01-05T09:00:29.510Z,13.10
2023-01-05T09:01:32.332Z,15.00
2023-01-05T09:02:34.890Z,15.55
2023-01-05T09:03:38.132Z,9.40
2023-01-05T09:04:40.597Z,16.00
2023-01-05T09:05:42.743Z,14.00
2023-01-05T09:06:45.094Z,17.40
2023-01-05T09:07:48.142Z,12.00
2023-01-05T09:08:50.187Z,16.80
2023-01-05T09:09:52.768Z,16.91
2023-01-05T09:10:55.049Z,10.80
2023-01-05T09:11:57.243Z,14.60
2023-01-05T09:12:59.354Z,14.50
2023-01-05T09:14:02.929Z,15.33
2023-01-05T09:15:07.318Z,4.45
2023-01-05T09:16:12.459Z,14.20
2023-01-05T09:17:16.090Z,11.20
2023-01-05T09:18:18.319Z,13.50
2023-01-05T09:19:20.256Z,16.22
2023-01-05T09:20:22.444Z,10.20
2023-01-05T09:21:24.951Z,15.70
2023-01-05T09:22:27.388Z,16.00
2023-01-05T09:23:30.565Z,19.40
2023-01-05T09:24:33.794Z,19.00
2023-01-05T09:25:38.501Z,16.80
2023-01-05T09:26:42.114Z,14.10
2023-01-05T09:27:45.286Z,13.10
2023-01-05T09:28:47.715Z,14.20
2023-01-05T09:29:49.838Z,17.30
2023-01-05T09:30:51.830Z,22.44
2023-01-05T09:31:53.908Z,14.67
2023-01-05T09:32:56.051Z,15.11
2023-01-05T09:33:59.870Z,15.36
2023-01-05T09:35:02.538Z,13.30
2023-01-05T09:36:06.325Z,15.70
2023-01-05T09:37:08.628Z,18.40
2023-01-05T09:38:10.776Z,15.20
2023-01-05T09:39:13.051Z,16.90
2023-01-05T09:40:15.589Z,18.50
2023-01-05T09:41:21.944Z,13.50
2023-01-05T09:42:26.991Z,13.70
2023-01-05T09:43:35.594Z,11.60
2023-01-05T09:44:44.605Z,18.00
2023-01-05T09:45:51.060Z,22.10
2023-01-05T09:46:56.648Z,18.91
2023-01-05T09:48:00.751Z,14.30
2023-01-05T09:49:06.331Z,8.10
2023-01-05T09:50:21.379Z,7.20
2023-01-05T09:51:24.837Z,8.00
2023-01-05T09:52:30.435Z,16.10
2023-01-05T09:53:32.025Z,12.00
2023-01-05T09:54:34.248Z,14.60
2023-01-05T09:55:37.564Z,16.80
2023-01-05T09:57:08.428Z,15.00
2023-01-05T09:58:02.461Z,15.30
2023-01-05T09:59:20.617Z,15.80
2023-01-05T10:00:25.025Z,6.90
2023-01-05T10:01:27.320Z,13.00
2023-01-05T10:02:33.355Z,8.80
2023-01-05T10:04:02.969Z,12.30
2023-01-05T10:04:44.261Z,15.30
2023-01-05T10:05:48.191Z,14.70
2023-01-05T10:06:54.187Z,14.40
2023-01-05T10:08:06.118Z,11.60
2023-01-05T10:09:11.018Z,8.50
2023-01-05T10:10:48.446Z,12.10
2023-01-05T10:12:15.886Z,9.00
2023-01-05T10:13:24.477Z,13.70
2023-01-05T10:14:39.747Z,8.90
2023-01-05T10:15:47.183Z,15.10
2023-01-05T10:16:57.669Z,12.00
2023-01-05T10:17:54.812Z,12.70
2023-01-05T10:18:58.952Z,12.90
2023-01-05T10:20:01.138Z,13.50
2023-01-05T10:21:25.148Z,13.70
2023-01-05T10:22:38.976Z,14.60
2023-01-05T10:24:03.355Z,13.00
2023-01-05T10:25:24.152Z,10.20
2023-01-05T10:27:23.195Z,13.60
2023-01-05T10:27:59.319Z,6.80
2023-01-05T10:29:14.176Z,11.50
2023-01-05T10:30:24.948Z,12.90
2023-01-05T10:31:46.476Z,13.40
2023-01-05T10:33:25.506Z,11.80
2023-01-05T10:34:43.629Z,14.10
2023-01-05T10:36:06.262Z,14.70
2023-01-05T10:37:08.462Z,16.00
2023-01-05T10:38:45.687Z,14.40
2023-01-05T10:40:10.446Z,10.00
2023-01-05T10:41:34.087Z,12.20
2023-01-05T10:42:46.668Z,13.20
2023-01-05T10:44:17.741Z,9.70
2023-01-05T10:45:20.928Z,10.90
2023-01-05T10:46:42.825Z,8.60
2023-01-05T10:47:31.448Z,15.90
2023-01-05T10:48:35.854Z,14.10
2023-01-05T10:49:41.758Z,8.30
2023-01-05T10:50:47.786Z,11.70
2023-01-05T10:51:56.487Z,16.20
2023-01-05T10:52:58.112Z,11.80
2023-01-05T10:54:03.302Z,11.80
2023-01-05T10:55:10.160Z,9.70
2023-01-05T10:56:18.456Z,13.80
2023-01-05T10:57:35.701Z,11.40
2023-01-05T10:58:39.314Z,11.90
2023-01-05T11:00:03.379Z,13.30
2023-01-05T11:01:30.334Z,9.30
2023-01-05T11:02:36.614Z,12.00
2023-01-05T11:04:25.656Z,13.40
2023-01-05T11:04:48.827Z,11.00
2023-01-05T11:05:51.164Z,10.40
2023-01-05T11:06:57.208Z,8.30
2023-01-05T11:08:03.119Z,9.80
2023-01-05T11:09:23.525Z,8.50
2023-01-05T11:10:30.271Z,11.30
2023-01-05T11:11:33.095Z,12.00
2023-01-05T11:12:35.461Z,11.45
2023-01-05T11:13:41.075Z,13.00
2023-01-05T11:14:46.969Z,9.50
2023-01-05T11:15:55.551Z,10.90
2023-01-05T11:17:04.797Z,9.30
2023-01-05T11:18:09.210Z,14.30
2023-01-05T11:19:15.031Z,13.40
2023-01-05T11:20:18.020Z,13.00
2023-01-05T11:21:43.975Z,6.40
2023-01-05T11:22:48.940Z,12.60
2023-01-05T11:23:54.116Z,10.20
2023-01-05T11:25:15.308Z,9.70
2023-01-05T11:26:33.862Z,11.80
2023-01-05T11:27:37.007Z,11.60
2023-01-05T11:28:43.281Z,10.80
2023-01-05T11:29:45.893Z,10.40
2023-01-05T11:31:04.119Z,9.80
2023-01-05T11:32:10.054Z,9.30
2023-01-05T11:33:18.566Z,16.30
2023-01-05T11:34:28.727Z,9.00
2023-01-05T11:35:38.882Z,5.10
2023-01-05T11:36:42.395Z,11.80
2023-01-05T11:37:45.649Z,11.10
2023-01-05T11:38:54.290Z,8.60
2023-01-05T11:40:02.756Z,11.00
2023-01-05T11:41:08.576Z,8.40
2023-01-05T11:42:25.375Z,8.20
2023-01-05T11:43:27.876Z,11.40
2023-01-05T11:44:31.756Z,12.60
2023-01-05T11:45:43.217Z,11.60
2023-01-05T11:46:46.925Z,14.60
2023-01-05T11:47:56.059Z,14.90
2023-01-05T11:48:58.818Z,8.50
2023-01-05T11:50:11.257Z,10.40
2023-01-05T11:51:27.862Z,10.20
2023-01-05T11:52:37.323Z,13.40
2023-01-05T11:53:40.186Z,9.50
2023-01-05T11:54:42.938Z,13.60
2023-01-05T14:01:08.195Z,13.50
2023-01-05T14:03:51.536Z,12.10
2023-01-05T14:04:54.158Z,12.40
2023-01-05T14:06:07.658Z,9.50
2023-01-05T14:07:16.781Z,9.90
2023-01-05T14:08:34.580Z,12.80
2023-01-05T14:09:53.914Z,10.30
2023-01-05T14:11:13.333Z,8.20
2023-01-05T14:12:19.196Z,12.70
2023-01-05T14:13:44.359Z,11.10
2023-01-05T14:15:12.226Z,9.60
2023-01-05T14:16:40.747Z,10.50
2023-01-05T14:17:57.434Z,13.20
2023-01-05T14:19:26.747Z,12.00
2023-01-05T14:20:40.134Z,9.80
2023-01-05T14:21:53.892Z,12.70
2023-01-05T14:22:57.468Z,9.20
2023-01-05T14:24:00.128Z,10.00
2023-01-05T14:25:42.755Z,6.30
2023-01-05T14:27:06.819Z,10.10
2023-01-05T14:28:29.440Z,11.00
2023-01-05T14:29:53.117Z,10.40
2023-01-05T14:31:15.332Z,9.80
2023-01-05T14:32:40.709Z,6.50
2023-01-05T14:33:49.327Z,8.80
2023-01-05T14:35:00.808Z,10.60
2023-01-05T14:36:05.618Z,9.30
2023-01-05T14:37:19.381Z,8.10
2023-01-05T14:38:24.563Z,8.50
2023-01-05T14:39:45.607Z,11.90
2023-01-05T14:40:53.946Z,7.80
2023-01-05T14:42:14.864Z,9.00
2023-01-05T14:43:34.853Z,10.00
2023-01-05T14:44:50.012Z,9.60
2023-01-05T14:46:02.012Z,6.40
2023-01-05T14:47:05.542Z,10.50
2023-01-05T14:48:11.224Z,6.60
2023-01-05T14:49:37.967Z,8.40
2023-01-05T14:50:42.804Z,10.10
2023-01-05T14:51:57.202Z,7.90
2023-01-05T14:53:03.453Z,7.90
2023-01-05T14:54:05.707Z,6.70
2023-01-05T14:55:21.820Z,8.40
2023-01-05T14:56:19.587Z,7.40
2023-01-05T14:57:30.755Z,8.50
2023-01-05T14:58:42.267Z,7.50
2023-01-05T14:59:46.641Z,6.20
2023-01-05T15:00:59.193Z,6.30
2023-01-05T15:02:07.751Z,9.00
2023-01-05T15:03:14.462Z,8.70
2023-01-05T15:04:36.330Z,7.80
2023-01-05T15:05:49.455Z,8.80
2023-01-05T15:07:24.739Z,10.70
2023-01-05T15:08:53.173Z,4.80
2023-01-05T15:10:11.643Z,9.70
2023-01-05T15:11:22.719Z,9.00
2023-01-05T15:12:48.055Z,9.20
2023-01-05T15:14:15.235Z,6.70
2023-01-05T15:15:34.105Z,8.60
2023-01-05T15:16:48.524Z,6.80
2023-01-05T15:19:42.164Z,8.80
2023-01-05T15:21:09.477Z,8.00
2023-01-05T15:22:37.102Z,8.10
2023-01-05T15:23:34.838Z,8.70
2023-01-05T15:24:50.898Z,9.60
2023-01-05T15:26:08.118Z,9.60
2023-01-05T15:27:35.017Z,8.20
2023-01-05T15:28:55.691Z,4.70
2023-01-05T15:30:17.165Z,9.40
2023-01-05T15:31:38.942Z,7.80
2023-01-05T15:32:44.386Z,9.50
2023-01-05T15:34:13.440Z,10.00
2023-01-05T15:35:20.472Z,7.90
2023-01-05T15:36:42.525Z,8.50
2023-01-05T15:37:51.518Z,3.30
2023-01-05T15:38:56.005Z,5.70
2023-01-05T15:40:01.149Z,6.50
2023-01-05T15:41:08.021Z,7.20
2023-01-05T15:42:14.040Z,7.90
2023-01-05T15:43:17.191Z,4.00
2023-01-05T15:44:20.857Z,6.70
2023-01-05T15:45:31.672Z,7.70
2023-01-05T15:46:35.911Z,6.70
2023-01-05T15:47:39.487Z,5.60
2023-01-05T15:48:45.180Z,8.90
2023-01-05T15:49:49.238Z,4.60
2023-01-05T15:50:55.616Z,1.50
2023-01-05T15:52:00.537Z,6.20
2023-01-05T15:53:02.687Z,7.20
2023-01-05T15:54:05.517Z,2.30
2023-01-05T15:55:16.456Z,7.64
2023-01-05T15:56:32.485Z,4.70
2023-01-05T15:57:34.540Z,6.90
2023-01-05T15:58:45.913Z,7.50
2023-01-05T15:59:51.617Z,8.40
2023-01-05T16:01:07.352Z,4.90
2023-01-05T16:02:28.857Z,6.20
2023-01-05T16:03:36.690Z,8.40
2023-01-05T16:04:44.876Z,8.60
2023-01-05T16:05:48.351Z,9.40
2023-01-05T16:07:00.118Z,8.20
2023-01-05T16:09:31.002Z,6.70
2023-01-05T16:10:41.044Z,5.80
2023-01-05T16:11:47.302Z,8.20
2023-01-05T16:12:53.463Z,6.50
2023-01-05T16:14:02.755Z,6.20
2023-01-05T16:15:06.345Z,6.40
2023-01-05T16:16:50.461Z,6.40
2023-01-05T16:17:33.913Z,6.60
2023-01-05T16:18:40.724Z,6.90
2023-01-05T16:19:52.740Z,4.80
2023-01-05T16:20:57.338Z,7.40
2023-01-05T16:22:23.493Z,7.50
2023-01-05T16:23:35.095Z,8.90
2023-01-05T16:24:43.710Z,8.50
2023-01-05T16:25:52.922Z,7.30
2023-01-05T16:26:58.512Z,7.20
2023-01-05T16:28:04.222Z,6.70
2023-01-05T16:29:22.844Z,8.10
2023-01-05T16:30:37.742Z,7.30
2023-01-05T16:31:39.985Z,9.30
2023-01-05T16:32:42.369Z,8.70
2023-01-05T16:33:46.067Z,10.10
2023-01-05T16:34:48.584Z,6.30
2023-01-05T16:35:53.124Z,10.00
2023-01-05T16:37:08.632Z,7.40
2023-01-05T16:38:17.233Z,8.60
2023-01-05T16:39:24.282Z,9.40
2023-01-05T16:40:27.108Z,9.20
2023-01-05T16:41:29.788Z,7.00
2023-01-05T16:42:33.776Z,6.50
2023-01-05T16:43:51.409Z,8.30
2023-01-05T16:44:55.827Z,4.00
2023-01-05T16:47:22.058Z,5.80
2023-01-05T16:48:40.793Z,8.30
2023-01-05T16:49:53.563Z,9.30